sensor_id;sensor_type;location;lat;lon;timestamp;P1;durP1;ratioP1;P2;durP2;ratioP2
62848;SDS011;48941;49.516;8.286;2023-09-12T00:01:22;11.68;;;7.97;;
62848;SDS011;48941;49.516;8.286;2023-09-12T00:03:50;12.10;;;7.97;;
62848;SDS011;48941;49.516;8.286;2023-09-12T00:06:18;14.68;;;8.48;;
62848;SDS011;48941;49.516;8.286;2023-09-12T00:08:47;13.07;;;8.43;;
62848;SDS011;48941;49.516;8.286;2023-09-12T00:11:15;16.20;;;8.32;;
62848;SDS011;48941;49.516;8.286;2023-09-12T00:13:43;12.48;;;7.90;;
62848;SDS011;48941;49.516;8.286;2023-09-12T00:16:12;12.80;;;7.47;;
62848;SDS011;48941;49.516;8.286;2023-09-12T00:18:40;18.27;;;8.05;;
62848;SDS011;48941;49.516;8.286;2023-09-12T00:21:09;14.70;;;8.10;;
62848;SDS011;48941;49.516;8.286;2023-09-12T00:23:37;19.05;;;8.50;;
62848;SDS011;48941;49.516;8.286;2023-09-12T00:26:06;14.77;;;7.88;;
62848;SDS011;48941;49.516;8.286;2023-09-12T00:28:34;16.35;;;8.05;;
62848;SDS011;48941;49.516;8.286;2023-09-12T00:31:01;12.68;;;7.75;;
62848;SDS011;48941;49.516;8.286;2023-09-12T00:33:29;16.45;;;8.05;;
62848;SDS011;48941;49.516;8.286;2023-09-12T00:35:57;15.50;;;7.90;;
62848;SDS011;48941;49.516;8.286;2023-09-12T00:38:25;15.00;;;7.65;;
62848;SDS011;48941;49.516;8.286;2023-09-12T00:40:53;10.27;;;7.90;;
62848;SDS011;48941;49.516;8.286;2023-09-12T00:43:22;12.48;;;7.57;;
62848;SDS011;48941;49.516;8.286;2023-09-12T00:45:50;15.90;;;8.25;;
62848;SDS011;48941;49.516;8.286;2023-09-12T00:48:18;17.20;;;7.43;;
62848;SDS011;48941;49.516;8.286;2023-09-12T00:50:47;15.82;;;8.57;;
62848;SDS011;48941;49.516;8.286;2023-09-12T00:53:16;13.10;;;8.18;;
62848;SDS011;48941;49.516;8.286;2023-09-12T00:55:46;13.35;;;8.13;;
62848;SDS011;48941;49.516;8.286;2023-09-12T00:58:21;15.55;;;8.18;;
62848;SDS011;48941;49.516;8.286;2023-09-12T01:00:50;15.60;;;7.82;;
62848;SDS011;48941;49.516;8.286;2023-09-12T01:03:17;14.50;;;7.68;;
62848;SDS011;48941;49.516;8.286;2023-09-12T01:05:45;15.40;;;7.53;;
62848;SDS011;48941;49.516;8.286;2023-09-12T01:08:13;17.58;;;7.90;;
62848;SDS011;48941;49.516;8.286;2023-09-12T01:10:41;17.50;;;7.78;;
62848;SDS011;48941;49.516;8.286;2023-09-12T01:13:12;15.60;;;8.50;;
62848;SDS011;48941;49.516;8.286;2023-09-12T01:15:43;14.43;;;8.20;;
62848;SDS011;48941;49.516;8.286;2023-09-12T01:18:10;16.02;;;7.72;;
62848;SDS011;48941;49.516;8.286;2023-09-12T01:20:39;16.67;;;7.72;;
62848;SDS011;48941;49.516;8.286;2023-09-12T01:23:21;22.70;;;8.10;;
62848;SDS011;48941;49.516;8.286;2023-09-12T01:26:04;17.08;;;8.38;;
62848;SDS011;48941;49.516;8.286;2023-09-12T01:28:58;13.65;;;8.18;;
62848;SDS011;48941;49.516;8.286;2023-09-12T01:31:27;18.65;;;8.48;;
62848;SDS011;48941;49.516;8.286;2023-09-12T01:33:55;22.35;;;9.75;;
62848;SDS011;48941;49.516;8.286;2023-09-12T01:36:24;15.57;;;9.40;;
62848;SDS011;48941;49.516;8.286;2023-09-12T01:38:52;15.02;;;8.40;;
62848;SDS011;48941;49.516;8.286;2023-09-12T01:41:19;16.02;;;9.55;;
62848;SDS011;48941;49.516;8.286;2023-09-12T01:43:47;15.80;;;8.90;;
62848;SDS011;48941;49.516;8.286;2023-09-12T01:46:19;19.10;;;9.02;;
62848;SDS011;48941;49.516;8.286;2023-09-12T01:48:48;16.40;;;9.38;;
62848;SDS011;48941;49.516;8.286;2023-09-12T01:51:18;13.55;;;9.13;;
62848;SDS011;48941;49.516;8.286;2023-09-12T01:53:46;17.02;;;10.32;;
62848;SDS011;48941;49.516;8.286;2023-09-12T01:56:15;19.00;;;9.32;;
62848;SDS011;48941;49.516;8.286;2023-09-12T01:58:44;13.05;;;8.73;;
62848;SDS011;48941;49.516;8.286;2023-09-12T02:01:12;17.90;;;9.13;;
62848;SDS011;48941;49.516;8.286;2023-09-12T02:03:41;16.38;;;8.82;;
62848;SDS011;48941;49.516;8.286;2023-09-12T02:06:09;13.10;;;9.15;;
62848;SDS011;48941;49.516;8.286;2023-09-12T02:08:37;22.65;;;9.35;;
62848;SDS011;48941;49.516;8.286;2023-09-12T02:11:05;17.13;;;8.55;;
62848;SDS011;48941;49.516;8.286;2023-09-12T02:13:33;14.23;;;7.93;;
62848;SDS011;48941;49.516;8.286;2023-09-12T02:16:01;17.05;;;7.80;;
62848;SDS011;48941;49.516;8.286;2023-09-12T02:18:30;16.98;;;8.20;;
62848;SDS011;48941;49.516;8.286;2023-09-12T02:20:59;14.10;;;7.85;;
62848;SDS011;48941;49.516;8.286;2023-09-12T02:23:27;16.70;;;8.07;;
62848;SDS011;48941;49.516;8.286;2023-09-12T02:25:55;17.63;;;8.32;;
62848;SDS011;48941;49.516;8.286;2023-09-12T02:28:23;16.20;;;8.02;;
62848;SDS011;48941;49.516;8.286;2023-09-12T02:30:51;24.48;;;8.52;;
62848;SDS011;48941;49.516;8.286;2023-09-12T02:33:18;15.98;;;7.97;;
62848;SDS011;48941;49.516;8.286;2023-09-12T02:35:46;14.70;;;8.90;;
62848;SDS011;48941;49.516;8.286;2023-09-12T02:38:16;19.20;;;8.25;;
62848;SDS011;48941;49.516;8.286;2023-09-12T02:40:45;19.30;;;9.05;;
62848;SDS011;48941;49.516;8.286;2023-09-12T02:43:12;16.40;;;8.32;;
62848;SDS011;48941;49.516;8.286;2023-09-12T02:45:40;15.30;;;7.93;;
62848;SDS011;48941;49.516;8.286;2023-09-12T02:48:08;16.08;;;8.48;;
62848;SDS011;48941;49.516;8.286;2023-09-12T02:50:36;14.88;;;7.80;;
62848;SDS011;48941;49.516;8.286;2023-09-12T02:53:04;17.95;;;8.27;;
62848;SDS011;48941;49.516;8.286;2023-09-12T02:55:33;10.38;;;7.57;;
62848;SDS011;48941;49.516;8.286;2023-09-12T02:58:07;17.42;;;7.50;;
62848;SDS011;48941;49.516;8.286;2023-09-12T03:00:37;14.25;;;7.22;;
62848;SDS011;48941;49.516;8.286;2023-09-12T03:03:06;12.27;;;7.28;;
62848;SDS011;48941;49.516;8.286;2023-09-12T03:05:35;17.98;;;7.75;;
62848;SDS011;48941;49.516;8.286;2023-09-12T03:08:03;16.08;;;8.13;;
62848;SDS011;48941;49.516;8.286;2023-09-12T03:10:31;16.17;;;7.47;;
62848;SDS011;48941;49.516;8.286;2023-09-12T03:13:00;14.73;;;7.88;;
62848;SDS011;48941;49.516;8.286;2023-09-12T03:15:28;15.25;;;8.02;;
62848;SDS011;48941;49.516;8.286;2023-09-12T03:17:56;17.40;;;7.72;;
62848;SDS011;48941;49.516;8.286;2023-09-12T03:20:23;15.80;;;8.13;;
62848;SDS011;48941;49.516;8.286;2023-09-12T03:22:51;13.07;;;8.55;;
62848;SDS011;48941;49.516;8.286;2023-09-12T03:25:19;15.98;;;8.27;;
62848;SDS011;48941;49.516;8.286;2023-09-12T03:27:47;16.77;;;7.78;;
62848;SDS011;48941;49.516;8.286;2023-09-12T03:30:16;16.63;;;8.25;;
62848;SDS011;48941;49.516;8.286;2023-09-12T03:32:43;13.68;;;8.48;;
62848;SDS011;48941;49.516;8.286;2023-09-12T03:35:11;19.48;;;8.93;;
62848;SDS011;48941;49.516;8.286;2023-09-12T03:37:39;13.20;;;7.65;;
62848;SDS011;48941;49.516;8.286;2023-09-12T03:40:09;13.95;;;8.40;;
62848;SDS011;48941;49.516;8.286;2023-09-12T03:42:38;13.32;;;7.47;;
62848;SDS011;48941;49.516;8.286;2023-09-12T03:45:08;18.95;;;8.45;;
62848;SDS011;48941;49.516;8.286;2023-09-12T03:47:38;15.48;;;7.75;;
62848;SDS011;48941;49.516;8.286;2023-09-12T03:50:06;16.40;;;7.85;;
62848;SDS011;48941;49.516;8.286;2023-09-12T03:52:34;16.88;;;7.97;;
62848;SDS011;48941;49.516;8.286;2023-09-12T03:55:02;14.07;;;7.90;;
62848;SDS011;48941;49.516;8.286;2023-09-12T03:57:30;19.83;;;8.50;;
62848;SDS011;48941;49.516;8.286;2023-09-12T03:59:58;15.45;;;8.27;;
62848;SDS011;48941;49.516;8.286;2023-09-12T04:02:26;18.30;;;8.57;;
62848;SDS011;48941;49.516;8.286;2023-09-12T04:04:55;14.80;;;7.95;;
62848;SDS011;48941;49.516;8.286;2023-09-12T04:07:25;15.25;;;8.02;;
62848;SDS011;48941;49.516;8.286;2023-09-12T04:09:53;18.95;;;8.40;;
62848;SDS011;48941;49.516;8.286;2023-09-12T04:12:21;20.95;;;8.70;;
62848;SDS011;48941;49.516;8.286;2023-09-12T04:14:49;14.95;;;9.02;;
62848;SDS011;48941;49.516;8.286;2023-09-12T04:17:17;21.73;;;9.02;;
62848;SDS011;48941;49.516;8.286;2023-09-12T04:19:45;23.48;;;8.68;;
62848;SDS011;48941;49.516;8.286;2023-09-12T04:22:14;21.60;;;8.80;;
62848;SDS011;48941;49.516;8.286;2023-09-12T04:24:42;15.73;;;8.27;;
62848;SDS011;48941;49.516;8.286;2023-09-12T04:27:10;22.52;;;9.00;;
62848;SDS011;48941;49.516;8.286;2023-09-12T04:29:38;18.05;;;8.65;;
62848;SDS011;48941;49.516;8.286;2023-09-12T04:32:05;19.27;;;8.68;;
62848;SDS011;48941;49.516;8.286;2023-09-12T04:34:33;19.60;;;8.73;;
62848;SDS011;48941;49.516;8.286;2023-09-12T04:37:01;18.55;;;9.05;;
62848;SDS011;48941;49.516;8.286;2023-09-12T04:39:34;14.35;;;8.90;;
62848;SDS011;48941;49.516;8.286;2023-09-12T04:42:02;18.30;;;9.25;;
62848;SDS011;48941;49.516;8.286;2023-09-12T04:44:34;26.70;;;9.38;;
62848;SDS011;48941;49.516;8.286;2023-09-12T04:47:02;17.98;;;9.50;;
62848;SDS011;48941;49.516;8.286;2023-09-12T04:49:30;22.00;;;9.20;;
62848;SDS011;48941;49.516;8.286;2023-09-12T04:51:58;18.83;;;9.07;;
62848;SDS011;48941;49.516;8.286;2023-09-12T04:54:26;19.25;;;9.77;;
62848;SDS011;48941;49.516;8.286;2023-09-12T04:56:55;19.33;;;9.40;;
62848;SDS011;48941;49.516;8.286;2023-09-12T04:59:23;17.85;;;9.80;;
62848;SDS011;48941;49.516;8.286;2023-09-12T05:01:51;18.52;;;9.52;;
62848;SDS011;48941;49.516;8.286;2023-09-12T05:04:19;17.85;;;9.63;;
62848;SDS011;48941;49.516;8.286;2023-09-12T05:06:47;25.13;;;10.55;;
62848;SDS011;48941;49.516;8.286;2023-09-12T05:09:15;22.15;;;10.23;;
62848;SDS011;48941;49.516;8.286;2023-09-12T05:11:43;28.08;;;10.93;;
62848;SDS011;48941;49.516;8.286;2023-09-12T05:14:12;26.45;;;9.52;;
62848;SDS011;48941;49.516;8.286;2023-09-12T05:16:40;28.92;;;10.57;;
62848;SDS011;48941;49.516;8.286;2023-09-12T05:19:08;17.65;;;10.15;;
62848;SDS011;48941;49.516;8.286;2023-09-12T05:21:36;22.85;;;9.63;;
62848;SDS011;48941;49.516;8.286;2023-09-12T05:24:04;28.58;;;9.65;;
62848;SDS011;48941;49.516;8.286;2023-09-12T05:26:32;20.70;;;9.52;;
62848;SDS011;48941;49.516;8.286;2023-09-12T05:29:00;21.73;;;10.23;;
62848;SDS011;48941;49.516;8.286;2023-09-12T05:31:29;20.95;;;9.70;;
62848;SDS011;48941;49.516;8.286;2023-09-12T05:33:58;20.42;;;9.48;;
62848;SDS011;48941;49.516;8.286;2023-09-12T05:36:26;17.40;;;9.80;;
62848;SDS011;48941;49.516;8.286;2023-09-12T05:38:53;19.55;;;9.57;;
62848;SDS011;48941;49.516;8.286;2023-09-12T05:41:25;20.20;;;9.98;;
62848;SDS011;48941;49.516;8.286;2023-09-12T05:43:52;21.25;;;9.18;;
62848;SDS011;48941;49.516;8.286;2023-09-12T05:46:20;20.45;;;9.00;;
62848;SDS011;48941;49.516;8.286;2023-09-12T05:48:49;22.83;;;9.93;;
62848;SDS011;48941;49.516;8.286;2023-09-12T05:51:17;21.23;;;9.52;;
62848;SDS011;48941;49.516;8.286;2023-09-12T05:53:45;18.35;;;10.18;;
62848;SDS011;48941;49.516;8.286;2023-09-12T05:56:13;16.58;;;9.07;;
62848;SDS011;48941;49.516;8.286;2023-09-12T05:58:41;20.90;;;9.52;;
62848;SDS011;48941;49.516;8.286;2023-09-12T06:01:09;16.65;;;8.52;;
62848;SDS011;48941;49.516;8.286;2023-09-12T06:03:37;17.65;;;9.98;;
62848;SDS011;48941;49.516;8.286;2023-09-12T06:06:06;17.42;;;10.45;;
62848;SDS011;48941;49.516;8.286;2023-09-12T06:08:34;16.77;;;8.52;;
62848;SDS011;48941;49.516;8.286;2023-09-12T06:11:02;19.88;;;9.70;;
62848;SDS011;48941;49.516;8.286;2023-09-12T06:13:30;18.25;;;9.50;;
62848;SDS011;48941;49.516;8.286;2023-09-12T06:15:59;20.70;;;9.15;;
62848;SDS011;48941;49.516;8.286;2023-09-12T06:18:27;24.30;;;9.50;;
62848;SDS011;48941;49.516;8.286;2023-09-12T06:20:57;17.75;;;9.13;;
62848;SDS011;48941;49.516;8.286;2023-09-12T06:23:26;22.85;;;9.23;;
62848;SDS011;48941;49.516;8.286;2023-09-12T06:25:54;24.05;;;9.15;;
62848;SDS011;48941;49.516;8.286;2023-09-12T06:28:25;23.20;;;10.15;;
62848;SDS011;48941;49.516;8.286;2023-09-12T06:30:53;23.38;;;9.90;;
62848;SDS011;48941;49.516;8.286;2023-09-12T06:33:21;21.55;;;10.55;;
62848;SDS011;48941;49.516;8.286;2023-09-12T06:35:49;24.27;;;10.60;;
62848;SDS011;48941;49.516;8.286;2023-09-12T06:38:19;23.90;;;11.63;;
62848;SDS011;48941;49.516;8.286;2023-09-12T06:40:49;21.13;;;11.75;;
62848;SDS011;48941;49.516;8.286;2023-09-12T06:43:17;22.10;;;11.05;;
62848;SDS011;48941;49.516;8.286;2023-09-12T06:45:45;23.55;;;9.80;;
62848;SDS011;48941;49.516;8.286;2023-09-12T06:48:13;28.73;;;11.20;;
62848;SDS011;48941;49.516;8.286;2023-09-12T06:50:43;20.38;;;10.95;;
62848;SDS011;48941;49.516;8.286;2023-09-12T06:53:16;17.92;;;10.70;;
62848;SDS011;48941;49.516;8.286;2023-09-12T06:55:44;17.38;;;10.00;;
62848;SDS011;48941;49.516;8.286;2023-09-12T06:58:13;26.88;;;10.85;;
62848;SDS011;48941;49.516;8.286;2023-09-12T07:00:41;28.95;;;11.05;;
62848;SDS011;48941;49.516;8.286;2023-09-12T07:03:09;25.77;;;11.02;;
62848;SDS011;48941;49.516;8.286;2023-09-12T07:05:40;21.52;;;10.98;;
62848;SDS011;48941;49.516;8.286;2023-09-12T07:08:09;31.05;;;10.88;;
62848;SDS011;48941;49.516;8.286;2023-09-12T07:10:36;20.13;;;10.50;;
62848;SDS011;48941;49.516;8.286;2023-09-12T07:13:04;20.70;;;9.93;;
62848;SDS011;48941;49.516;8.286;2023-09-12T07:15:35;16.95;;;8.98;;
62848;SDS011;48941;49.516;8.286;2023-09-12T07:18:03;18.00;;;9.45;;
62848;SDS011;48941;49.516;8.286;2023-09-12T07:20:33;20.95;;;8.85;;
62848;SDS011;48941;49.516;8.286;2023-09-12T07:23:01;16.55;;;9.13;;
62848;SDS011;48941;49.516;8.286;2023-09-12T07:25:29;21.20;;;8.60;;
62848;SDS011;48941;49.516;8.286;2023-09-12T07:27:57;16.67;;;8.80;;
62848;SDS011;48941;49.516;8.286;2023-09-12T07:30:25;16.48;;;9.18;;
62848;SDS011;48941;49.516;8.286;2023-09-12T07:32:54;18.08;;;9.25;;
62848;SDS011;48941;49.516;8.286;2023-09-12T07:35:22;18.25;;;8.82;;
62848;SDS011;48941;49.516;8.286;2023-09-12T07:37:50;15.57;;;8.63;;
62848;SDS011;48941;49.516;8.286;2023-09-12T07:40:18;17.95;;;8.50;;
62848;SDS011;48941;49.516;8.286;2023-09-12T07:42:45;22.00;;;8.27;;
62848;SDS011;48941;49.516;8.286;2023-09-12T07:45:13;18.48;;;7.60;;
62848;SDS011;48941;49.516;8.286;2023-09-12T07:47:41;15.40;;;8.13;;
62848;SDS011;48941;49.516;8.286;2023-09-12T07:50:10;20.52;;;7.68;;
62848;SDS011;48941;49.516;8.286;2023-09-12T07:52:38;27.10;;;8.23;;
62848;SDS011;48941;49.516;8.286;2023-09-12T07:55:07;15.63;;;8.65;;
62848;SDS011;48941;49.516;8.286;2023-09-12T07:57:35;22.17;;;9.43;;
62848;SDS011;48941;49.516;8.286;2023-09-12T08:00:04;17.75;;;9.27;;
62848;SDS011;48941;49.516;8.286;2023-09-12T08:02:37;16.42;;;8.18;;
62848;SDS011;48941;49.516;8.286;2023-09-12T08:05:05;25.35;;;8.68;;
62848;SDS011;48941;49.516;8.286;2023-09-12T08:07:35;22.48;;;8.65;;
62848;SDS011;48941;49.516;8.286;2023-09-12T08:10:04;21.42;;;8.80;;
62848;SDS011;48941;49.516;8.286;2023-09-12T08:12:32;26.75;;;9.55;;
62848;SDS011;48941;49.516;8.286;2023-09-12T08:15:01;25.70;;;9.23;;
62848;SDS011;48941;49.516;8.286;2023-09-12T08:17:29;22.88;;;9.23;;
62848;SDS011;48941;49.516;8.286;2023-09-12T08:19:57;17.38;;;8.93;;
62848;SDS011;48941;49.516;8.286;2023-09-12T08:22:24;23.23;;;8.98;;
62848;SDS011;48941;49.516;8.286;2023-09-12T08:24:54;22.55;;;9.88;;
62848;SDS011;48941;49.516;8.286;2023-09-12T08:27:21;21.33;;;9.55;;
62848;SDS011;48941;49.516;8.286;2023-09-12T08:29:50;25.05;;;9.55;;
62848;SDS011;48941;49.516;8.286;2023-09-12T08:32:17;20.38;;;9.23;;
62848;SDS011;48941;49.516;8.286;2023-09-12T08:34:45;17.27;;;8.80;;
62848;SDS011;48941;49.516;8.286;2023-09-12T08:37:13;27.45;;;8.95;;
62848;SDS011;48941;49.516;8.286;2023-09-12T08:39:41;17.17;;;8.40;;
62848;SDS011;48941;49.516;8.286;2023-09-12T08:42:13;20.75;;;9.10;;
62848;SDS011;48941;49.516;8.286;2023-09-12T08:44:43;18.33;;;9.43;;
62848;SDS011;48941;49.516;8.286;2023-09-12T08:47:11;25.88;;;8.27;;
62848;SDS011;48941;49.516;8.286;2023-09-12T08:49:39;18.25;;;9.13;;
62848;SDS011;48941;49.516;8.286;2023-09-12T08:52:09;15.73;;;9.30;;
62848;SDS011;48941;49.516;8.286;2023-09-12T08:54:37;22.10;;;8.63;;
62848;SDS011;48941;49.516;8.286;2023-09-12T08:57:05;22.52;;;8.40;;
62848;SDS011;48941;49.516;8.286;2023-09-12T08:59:35;16.98;;;8.23;;
62848;SDS011;48941;49.516;8.286;2023-09-12T09:02:04;17.92;;;8.90;;
62848;SDS011;48941;49.516;8.286;2023-09-12T09:04:36;18.40;;;8.60;;
62848;SDS011;48941;49.516;8.286;2023-09-12T09:07:05;20.02;;;8.95;;
62848;SDS011;48941;49.516;8.286;2023-09-12T09:09:35;17.60;;;8.80;;
62848;SDS011;48941;49.516;8.286;2023-09-12T09:12:06;19.67;;;8.30;;
62848;SDS011;48941;49.516;8.286;2023-09-12T09:14:36;19.27;;;8.27;;
62848;SDS011;48941;49.516;8.286;2023-09-12T09:17:03;19.42;;;8.90;;
62848;SDS011;48941;49.516;8.286;2023-09-12T09:19:41;18.48;;;8.60;;
62848;SDS011;48941;49.516;8.286;2023-09-12T09:22:09;16.40;;;8.00;;
62848;SDS011;48941;49.516;8.286;2023-09-12T09:24:37;19.48;;;8.80;;
62848;SDS011;48941;49.516;8.286;2023-09-12T09:27:05;16.92;;;8.13;;
62848;SDS011;48941;49.516;8.286;2023-09-12T09:29:45;22.02;;;7.75;;
62848;SDS011;48941;49.516;8.286;2023-09-12T09:32:17;19.70;;;7.95;;
62848;SDS011;48941;49.516;8.286;2023-09-12T09:34:48;14.10;;;7.95;;
62848;SDS011;48941;49.516;8.286;2023-09-12T09:37:16;19.27;;;8.57;;
62848;SDS011;48941;49.516;8.286;2023-09-12T09:39:46;19.98;;;8.70;;
62848;SDS011;48941;49.516;8.286;2023-09-12T09:42:18;17.95;;;8.77;;
62848;SDS011;48941;49.516;8.286;2023-09-12T09:44:48;21.25;;;8.85;;
62848;SDS011;48941;49.516;8.286;2023-09-12T09:47:16;23.95;;;8.88;;
62848;SDS011;48941;49.516;8.286;2023-09-12T09:49:46;20.35;;;9.52;;
62848;SDS011;48941;49.516;8.286;2023-09-12T09:52:14;17.60;;;8.40;;
62848;SDS011;48941;49.516;8.286;2023-09-12T09:54:43;21.70;;;9.18;;
62848;SDS011;48941;49.516;8.286;2023-09-12T09:57:12;19.35;;;8.40;;
62848;SDS011;48941;49.516;8.286;2023-09-12T09:59:40;17.00;;;8.73;;
62848;SDS011;48941;49.516;8.286;2023-09-12T10:02:12;13.52;;;8.25;;
62848;SDS011;48941;49.516;8.286;2023-09-12T10:04:48;17.40;;;8.38;;
62848;SDS011;48941;49.516;8.286;2023-09-12T10:07:23;19.25;;;8.77;;
62848;SDS011;48941;49.516;8.286;2023-09-12T10:09:51;15.07;;;7.95;;
62848;SDS011;48941;49.516;8.286;2023-09-12T10:12:19;16.45;;;8.05;;
62848;SDS011;48941;49.516;8.286;2023-09-12T10:14:47;23.80;;;8.45;;
62848;SDS011;48941;49.516;8.286;2023-09-12T10:17:16;15.57;;;8.00;;
62848;SDS011;48941;49.516;8.286;2023-09-12T10:19:51;17.63;;;9.18;;
62848;SDS011;48941;49.516;8.286;2023-09-12T10:22:24;18.15;;;8.52;;
62848;SDS011;48941;49.516;8.286;2023-09-12T10:24:55;13.70;;;8.73;;
62848;SDS011;48941;49.516;8.286;2023-09-12T10:27:25;16.63;;;9.05;;
62848;SDS011;48941;49.516;8.286;2023-09-12T10:29:53;13.65;;;8.85;;
62848;SDS011;48941;49.516;8.286;2023-09-12T10:32:23;15.85;;;8.88;;
62848;SDS011;48941;49.516;8.286;2023-09-12T10:34:53;13.40;;;8.10;;
62848;SDS011;48941;49.516;8.286;2023-09-12T10:37:26;16.85;;;8.85;;
62848;SDS011;48941;49.516;8.286;2023-09-12T10:39:55;16.27;;;8.85;;
62848;SDS011;48941;49.516;8.286;2023-09-12T10:42:25;14.68;;;8.45;;
62848;SDS011;48941;49.516;8.286;2023-09-12T10:44:55;16.00;;;8.35;;
62848;SDS011;48941;49.516;8.286;2023-09-12T10:49:56;11.50;;;7.82;;
62848;SDS011;48941;49.516;8.286;2023-09-12T10:52:24;17.13;;;8.35;;
62848;SDS011;48941;49.516;8.286;2023-09-12T10:54:52;18.38;;;8.98;;
62848;SDS011;48941;49.516;8.286;2023-09-12T10:57:21;24.55;;;9.80;;
62848;SDS011;48941;49.516;8.286;2023-09-12T11:00:09;16.20;;;8.55;;
62848;SDS011;48941;49.516;8.286;2023-09-12T11:02:39;15.43;;;8.10;;
62848;SDS011;48941;49.516;8.286;2023-09-12T11:08:11;15.38;;;7.90;;
62848;SDS011;48941;49.516;8.286;2023-09-12T11:10:39;15.93;;;8.55;;
62848;SDS011;48941;49.516;8.286;2023-09-12T11:13:07;16.95;;;8.15;;
62848;SDS011;48941;49.516;8.286;2023-09-12T11:21:42;17.42;;;8.70;;
62848;SDS011;48941;49.516;8.286;2023-09-12T11:24:11;16.65;;;8.18;;
62848;SDS011;48941;49.516;8.286;2023-09-12T11:26:55;18.48;;;8.25;;
62848;SDS011;48941;49.516;8.286;2023-09-12T11:29:27;18.83;;;8.00;;
62848;SDS011;48941;49.516;8.286;2023-09-12T11:31:57;15.73;;;8.45;;
62848;SDS011;48941;49.516;8.286;2023-09-12T11:34:28;15.80;;;8.32;;
62848;SDS011;48941;49.516;8.286;2023-09-12T11:36:58;12.48;;;7.55;;
62848;SDS011;48941;49.516;8.286;2023-09-12T11:39:29;24.83;;;9.55;;
62848;SDS011;48941;49.516;8.286;2023-09-12T11:41:59;20.00;;;8.40;;
62848;SDS011;48941;49.516;8.286;2023-09-12T11:44:28;15.25;;;7.95;;
62848;SDS011;48941;49.516;8.286;2023-09-12T11:46:58;16.35;;;7.65;;
62848;SDS011;48941;49.516;8.286;2023-09-12T11:49:36;17.85;;;8.73;;
62848;SDS011;48941;49.516;8.286;2023-09-12T11:52:07;22.80;;;8.50;;
62848;SDS011;48941;49.516;8.286;2023-09-12T11:57:04;16.77;;;7.85;;
62848;SDS011;48941;49.516;8.286;2023-09-12T11:59:36;13.65;;;7.63;;
62848;SDS011;48941;49.516;8.286;2023-09-12T12:02:06;15.07;;;8.00;;
62848;SDS011;48941;49.516;8.286;2023-09-12T12:04:36;17.52;;;8.27;;
62848;SDS011;48941;49.516;8.286;2023-09-12T12:07:06;13.25;;;7.85;;
62848;SDS011;48941;49.516;8.286;2023-09-12T12:09:34;15.63;;;8.25;;
62848;SDS011;48941;49.516;8.286;2023-09-12T12:14:48;19.15;;;8.70;;
62848;SDS011;48941;49.516;8.286;2023-09-12T12:17:16;15.13;;;7.75;;
62848;SDS011;48941;49.516;8.286;2023-09-12T12:19:46;24.73;;;8.18;;
62848;SDS011;48941;49.516;8.286;2023-09-12T12:22:13;13.27;;;7.97;;
62848;SDS011;48941;49.516;8.286;2023-09-12T12:24:44;15.00;;;8.07;;
62848;SDS011;48941;49.516;8.286;2023-09-12T12:27:14;12.77;;;7.57;;
62848;SDS011;48941;49.516;8.286;2023-09-12T12:29:42;16.17;;;8.00;;
62848;SDS011;48941;49.516;8.286;2023-09-12T12:32:11;16.70;;;8.15;;
62848;SDS011;48941;49.516;8.286;2023-09-12T12:37:36;16.40;;;8.07;;
62848;SDS011;48941;49.516;8.286;2023-09-12T12:40:05;15.25;;;7.90;;
62848;SDS011;48941;49.516;8.286;2023-09-12T12:42:39;13.57;;;7.75;;
62848;SDS011;48941;49.516;8.286;2023-09-12T12:45:20;17.90;;;8.13;;
62848;SDS011;48941;49.516;8.286;2023-09-12T12:47:50;12.90;;;8.05;;
62848;SDS011;48941;49.516;8.286;2023-09-12T12:50:20;13.70;;;7.80;;
62848;SDS011;48941;49.516;8.286;2023-09-12T12:52:49;13.82;;;7.88;;
62848;SDS011;48941;49.516;8.286;2023-09-12T12:55:16;16.08;;;8.10;;
62848;SDS011;48941;49.516;8.286;2023-09-12T12:57:47;16.33;;;7.55;;
62848;SDS011;48941;49.516;8.286;2023-09-12T13:00:16;10.25;;;7.47;;
62848;SDS011;48941;49.516;8.286;2023-09-12T13:02:45;10.90;;;7.45;;
62848;SDS011;48941;49.516;8.286;2023-09-12T13:05:21;15.45;;;8.02;;
62848;SDS011;48941;49.516;8.286;2023-09-12T13:07:55;14.90;;;7.70;;
62848;SDS011;48941;49.516;8.286;2023-09-12T13:10:23;10.52;;;7.47;;
62848;SDS011;48941;49.516;8.286;2023-09-12T13:12:51;9.98;;;7.70;;
62848;SDS011;48941;49.516;8.286;2023-09-12T13:15:19;15.57;;;7.78;;
62848;SDS011;48941;49.516;8.286;2023-09-12T13:17:47;16.52;;;7.80;;
62848;SDS011;48941;49.516;8.286;2023-09-12T13:20:15;11.43;;;7.93;;
62848;SDS011;48941;49.516;8.286;2023-09-12T13:22:48;14.95;;;7.95;;
62848;SDS011;48941;49.516;8.286;2023-09-12T13:25:16;20.77;;;8.15;;
62848;SDS011;48941;49.516;8.286;2023-09-12T13:27:44;17.25;;;7.90;;
62848;SDS011;48941;49.516;8.286;2023-09-12T13:30:12;10.93;;;7.40;;
62848;SDS011;48941;49.516;8.286;2023-09-12T13:32:40;17.02;;;7.53;;
62848;SDS011;48941;49.516;8.286;2023-09-12T13:35:08;10.98;;;7.45;;
62848;SDS011;48941;49.516;8.286;2023-09-12T13:37:36;13.70;;;7.60;;
62848;SDS011;48941;49.516;8.286;2023-09-12T13:40:06;17.20;;;7.80;;
62848;SDS011;48941;49.516;8.286;2023-09-12T13:42:35;13.75;;;7.95;;
62848;SDS011;48941;49.516;8.286;2023-09-12T13:45:03;11.63;;;7.75;;
62848;SDS011;48941;49.516;8.286;2023-09-12T13:47:32;15.48;;;7.53;;
62848;SDS011;48941;49.516;8.286;2023-09-12T13:49:59;18.52;;;8.15;;
62848;SDS011;48941;49.516;8.286;2023-09-12T13:52:27;16.08;;;7.30;;
62848;SDS011;48941;49.516;8.286;2023-09-12T13:54:55;11.98;;;7.38;;
62848;SDS011;48941;49.516;8.286;2023-09-12T13:57:26;17.58;;;8.30;;
62848;SDS011;48941;49.516;8.286;2023-09-12T13:59:54;12.05;;;7.72;;
62848;SDS011;48941;49.516;8.286;2023-09-12T14:02:22;14.57;;;7.78;;
62848;SDS011;48941;49.516;8.286;2023-09-12T14:04:51;13.40;;;7.72;;
62848;SDS011;48941;49.516;8.286;2023-09-12T14:07:34;15.05;;;7.95;;
62848;SDS011;48941;49.516;8.286;2023-09-12T14:10:04;13.95;;;8.60;;
62848;SDS011;48941;49.516;8.286;2023-09-12T14:12:34;10.60;;;7.93;;
62848;SDS011;48941;49.516;8.286;2023-09-12T14:15:01;12.75;;;8.20;;
62848;SDS011;48941;49.516;8.286;2023-09-12T14:17:34;11.43;;;7.60;;
62848;SDS011;48941;49.516;8.286;2023-09-12T14:20:09;14.85;;;7.85;;
62848;SDS011;48941;49.516;8.286;2023-09-12T14:22:42;11.52;;;7.40;;
62848;SDS011;48941;49.516;8.286;2023-09-12T14:25:11;17.38;;;8.20;;
62848;SDS011;48941;49.516;8.286;2023-09-12T14:27:43;13.02;;;7.53;;
62848;SDS011;48941;49.516;8.286;2023-09-12T14:30:11;13.13;;;7.68;;
62848;SDS011;48941;49.516;8.286;2023-09-12T14:32:40;15.85;;;7.45;;
62848;SDS011;48941;49.516;8.286;2023-09-12T14:35:08;12.05;;;7.43;;
62848;SDS011;48941;49.516;8.286;2023-09-12T14:37:36;16.27;;;7.30;;
62848;SDS011;48941;49.516;8.286;2023-09-12T14:40:04;13.18;;;7.28;;
62848;SDS011;48941;49.516;8.286;2023-09-12T14:42:34;14.77;;;7.40;;
62848;SDS011;48941;49.516;8.286;2023-09-12T14:45:03;13.70;;;7.10;;
62848;SDS011;48941;49.516;8.286;2023-09-12T14:47:32;14.77;;;7.65;;
62848;SDS011;48941;49.516;8.286;2023-09-12T14:49:59;16.00;;;7.85;;
62848;SDS011;48941;49.516;8.286;2023-09-12T14:52:27;8.45;;;6.68;;
62848;SDS011;48941;49.516;8.286;2023-09-12T14:54:56;11.48;;;7.05;;
62848;SDS011;48941;49.516;8.286;2023-09-12T14:57:25;12.88;;;7.30;;
62848;SDS011;48941;49.516;8.286;2023-09-12T14:59:53;8.45;;;7.07;;
62848;SDS011;48941;49.516;8.286;2023-09-12T15:02:23;12.85;;;6.90;;
62848;SDS011;48941;49.516;8.286;2023-09-12T15:04:57;10.15;;;6.55;;